createdAt,value
2017-11-20T00:00:52.536Z,3.80
2017-11-20T00:01:52.500Z,3.80
2017-11-20T00:02:52.509Z,4.10
2017-11-20T00:03:52.513Z,4.30
2017-11-20T00:04:52.518Z,4.50
2017-11-20T00:05:52.523Z,4.30
2017-11-20T00:06:52.531Z,3.70
2017-11-20T00:07:52.579Z,4.50
2017-11-20T00:08:52.545Z,3.90
2017-11-20T00:09:52.592Z,3.80
2017-11-20T00:10:52.552Z,4.00
2017-11-20T00:11:53.631Z,4.20
2017-11-20T00:12:52.568Z,3.80
2017-11-20T00:13:52.570Z,3.90
2017-11-20T00:14:52.572Z,4.50
2017-11-20T00:15:52.579Z,3.60
2017-11-20T00:16:52.590Z,3.80
2017-11-20T00:17:52.590Z,4.00
2017-11-20T00:18:52.596Z,4.50
2017-11-20T00:19:52.603Z,3.90
2017-11-20T00:20:52.610Z,4.10
2017-11-20T00:21:52.615Z,3.90
2017-11-20T00:22:52.624Z,4.00
2017-11-20T00:23:52.623Z,4.10
2017-11-20T00:24:52.640Z,4.10
2017-11-20T00:25:52.647Z,4.10
2017-11-20T00:26:52.661Z,4.00
2017-11-20T00:27:52.661Z,3.60
2017-11-20T00:28:52.663Z,4.00
2017-11-20T00:29:52.662Z,4.10
2017-11-20T00:30:52.669Z,4.30
2017-11-20T00:31:52.674Z,4.10
2017-11-20T00:32:52.790Z,4.20
2017-11-20T00:33:52.706Z,4.50
2017-11-20T00:34:52.689Z,4.60
2017-11-20T00:35:52.694Z,4.90
2017-11-20T00:36:52.703Z,4.50
2017-11-20T00:37:52.708Z,4.10
2017-11-20T00:38:52.719Z,4.50
2017-11-20T00:39:52.721Z,4.00
2017-11-20T00:40:52.725Z,4.20
2017-11-20T00:41:52.737Z,4.00
2017-11-20T00:42:52.736Z,3.80
2017-11-20T00:43:52.743Z,4.10
2017-11-20T00:44:52.748Z,4.20
2017-11-20T00:45:52.756Z,4.50
2017-11-20T00:46:52.784Z,4.50
2017-11-20T00:47:52.766Z,4.10
2017-11-20T00:48:52.797Z,4.10
2017-11-20T00:49:52.782Z,3.90
2017-11-20T00:50:52.785Z,4.30
2017-11-20T00:51:52.789Z,3.90
2017-11-20T00:52:52.809Z,4.00
2017-11-20T00:53:52.805Z,3.60
2017-11-20T00:54:52.805Z,4.10
2017-11-20T00:55:52.819Z,4.10
2017-11-20T00:56:52.816Z,4.00
2017-11-20T00:57:52.843Z,4.10
2017-11-20T00:58:52.837Z,3.70
2017-11-20T00:59:52.842Z,3.80
2017-11-20T01:00:52.846Z,3.70
2017-11-20T01:01:52.853Z,4.10
2017-11-20T01:02:52.860Z,4.20
2017-11-20T01:03:52.865Z,4.20
2017-11-20T01:04:52.868Z,4.30
2017-11-20T01:05:52.866Z,3.90
2017-11-20T01:06:53.915Z,4.40
2017-11-20T01:07:52.883Z,3.80
2017-11-20T01:08:52.905Z,4.20
2017-11-20T01:09:52.901Z,3.70
2017-11-20T01:10:52.899Z,4.10
2017-11-20T01:11:52.899Z,4.00
2017-11-20T01:12:52.917Z,3.80
2017-11-20T01:13:52.917Z,4.40
2017-11-20T01:14:52.929Z,4.10
2017-11-20T01:15:53.019Z,3.50
2017-11-20T01:16:52.935Z,4.00
2017-11-20T01:17:53.029Z,3.40
2017-11-20T01:18:52.944Z,4.40
2017-11-20T01:19:53.044Z,3.70
2017-11-20T01:20:52.957Z,4.00
2017-11-20T01:21:52.968Z,4.00
2017-11-20T01:22:52.967Z,3.70
2017-11-20T01:23:52.981Z,3.80
2017-11-20T01:24:52.984Z,4.00
2017-11-20T01:25:52.987Z,4.00
2017-11-20T01:26:52.996Z,4.20
2017-11-20T01:27:52.998Z,4.10
2017-11-20T01:28:53.003Z,3.70
2017-11-20T01:29:53.016Z,3.90
2017-11-20T01:30:53.026Z,4.00
2017-11-20T01:31:53.025Z,4.30
2017-11-20T01:32:53.030Z,3.70
2017-11-20T01:33:53.037Z,4.00
2017-11-20T01:34:53.043Z,3.80
2017-11-20T01:35:53.039Z,4.50
2017-11-20T01:36:53.050Z,3.50
2017-11-20T01:37:53.055Z,4.20
2017-11-20T01:38:53.060Z,4.20
2017-11-20T01:39:53.079Z,3.90
2017-11-20T01:40:53.076Z,4.00
2017-11-20T01:41:53.147Z,4.40
2017-11-20T01:42:53.087Z,4.20
2017-11-20T01:43:53.095Z,3.80
2017-11-20T01:44:53.095Z,4.30
2017-11-20T01:45:53.108Z,4.20
2017-11-20T01:46:53.097Z,4.20
2017-11-20T01:47:53.110Z,4.40
2017-11-20T01:48:53.118Z,4.10
2017-11-20T01:49:53.123Z,4.30
2017-11-20T01:50:53.133Z,5.30
2017-11-20T01:51:53.130Z,4.30
2017-11-20T01:52:53.142Z,4.00
2017-11-20T01:53:53.141Z,4.80
2017-11-20T01:54:53.155Z,4.60
2017-11-20T01:55:53.153Z,4.70
2017-11-20T01:56:53.161Z,5.00
2017-11-20T01:57:53.172Z,5.20
2017-11-20T01:58:53.182Z,5.70
2017-11-20T01:59:53.188Z,5.60
2017-11-20T02:00:53.187Z,5.50
2017-11-20T02:01:53.194Z,5.20
2017-11-20T02:02:53.196Z,5.80
2017-11-20T02:03:53.203Z,5.60
2017-11-20T02:04:53.209Z,6.30
2017-11-20T02:05:53.216Z,5.50
2017-11-20T02:06:53.218Z,6.00
2017-11-20T02:07:53.224Z,5.90
2017-11-20T02:08:55.358Z,6.00
2017-11-20T02:09:53.237Z,6.30
2017-11-20T02:10:53.312Z,6.10
2017-11-20T02:11:53.246Z,6.40
2017-11-20T02:13:04.280Z,6.40
2017-11-20T02:13:53.259Z,6.70
2017-11-20T02:14:54.359Z,6.70
2017-11-20T02:15:53.273Z,6.60
2017-11-20T02:16:53.348Z,6.30
2017-11-20T02:17:53.280Z,7.50
2017-11-20T02:18:53.366Z,6.20
2017-11-20T02:19:53.292Z,6.50
2017-11-20T02:20:54.402Z,6.20
2017-11-20T02:21:53.302Z,7.10
2017-11-20T02:22:53.390Z,6.40
2017-11-20T02:23:53.321Z,6.90
2017-11-20T02:24:53.406Z,6.50
2017-11-20T02:25:53.385Z,6.30
2017-11-20T02:26:53.418Z,7.00
2017-11-20T02:27:53.342Z,7.40
2017-11-20T02:28:53.430Z,6.60
2017-11-20T02:29:53.356Z,6.50
2017-11-20T02:30:53.357Z,6.10
2017-11-20T02:31:53.361Z,6.40
2017-11-20T02:32:53.380Z,6.20
2017-11-20T02:33:53.382Z,6.60
2017-11-20T02:34:53.380Z,6.90
2017-11-20T02:35:53.388Z,6.40
2017-11-20T02:36:53.396Z,6.80
2017-11-20T02:37:54.516Z,7.10
2017-11-20T02:38:53.401Z,6.50
2017-11-20T02:39:55.448Z,7.60
2017-11-20T02:40:53.416Z,6.60
2017-11-20T02:41:53.515Z,6.70
2017-11-20T02:42:53.419Z,6.20
2017-11-20T02:43:53.436Z,6.70
2017-11-20T02:44:53.439Z,6.80
2017-11-20T02:45:53.448Z,6.50
2017-11-20T02:46:55.506Z,6.60
2017-11-20T02:47:53.452Z,7.10
2017-11-20T02:48:54.491Z,7.10
2017-11-20T02:49:53.467Z,7.30
2017-11-20T02:50:59.334Z,7.10
2017-11-20T02:51:53.478Z,7.60
2017-11-20T02:52:59.336Z,7.00
2017-11-20T02:53:53.504Z,7.20
2017-11-20T02:54:53.606Z,7.10
2017-11-20T02:55:53.504Z,6.80
2017-11-20T02:57:04.366Z,7.40
2017-11-20T02:57:53.516Z,7.20
2017-11-20T02:58:53.537Z,6.70
2017-11-20T02:59:53.527Z,7.10
2017-11-20T03:00:54.574Z,6.90
2017-11-20T03:01:53.555Z,7.40
2017-11-20T03:02:53.565Z,7.30
2017-11-20T03:03:53.544Z,7.20
2017-11-20T03:04:54.602Z,7.80
2017-11-20T03:05:53.556Z,7.00
2017-11-20T03:06:55.641Z,7.00
2017-11-20T03:07:53.568Z,7.40
2017-11-20T03:08:53.733Z,7.30
2017-11-20T03:09:53.578Z,7.90
2017-11-20T03:10:53.582Z,7.30
2017-11-20T03:11:53.583Z,7.70
2017-11-20T03:12:53.593Z,7.90
2017-11-20T03:13:53.603Z,8.50
2017-11-20T03:14:53.605Z,7.40
2017-11-20T03:15:53.611Z,8.30
2017-11-20T03:16:53.619Z,8.50
2017-11-20T03:17:53.626Z,7.70
2017-11-20T03:18:53.633Z,7.80
2017-11-20T03:19:53.644Z,7.80
2017-11-20T03:20:53.638Z,8.50
2017-11-20T03:21:53.650Z,8.20
2017-11-20T03:22:53.648Z,8.10
2017-11-20T03:23:53.645Z,8.30
2017-11-20T03:24:53.661Z,8.90
2017-11-20T03:25:53.664Z,8.00
2017-11-20T03:26:53.679Z,8.00
2017-11-20T03:27:53.679Z,8.90
2017-11-20T03:28:53.681Z,8.60
2017-11-20T03:29:53.684Z,9.10
2017-11-20T03:30:53.700Z,8.60
2017-11-20T03:31:53.704Z,8.50
2017-11-20T03:32:53.706Z,8.70
2017-11-20T03:33:53.701Z,8.90
2017-11-20T03:34:53.711Z,8.70
2017-11-20T03:35:53.713Z,9.20
2017-11-20T03:36:53.729Z,8.40
2017-11-20T03:37:53.739Z,8.80
2017-11-20T03:38:53.734Z,9.40
2017-11-20T03:39:53.747Z,8.50
2017-11-20T03:40:53.747Z,8.20
2017-11-20T03:41:53.758Z,8.60
2017-11-20T03:42:53.759Z,8.90
2017-11-20T03:43:53.770Z,8.60
2017-11-20T03:44:53.775Z,9.20
2017-11-20T03:45:53.778Z,9.50
2017-11-20T03:46:53.784Z,9.30
2017-11-20T03:47:53.790Z,9.00
2017-11-20T03:48:53.800Z,8.90
2017-11-20T03:49:53.816Z,8.70
2017-11-20T03:50:53.816Z,8.90
2017-11-20T03:51:53.812Z,8.80
2017-11-20T03:52:53.819Z,8.30
2017-11-20T03:53:53.829Z,9.20
2017-11-20T03:54:53.828Z,8.70
2017-11-20T03:55:53.834Z,8.40
2017-11-20T03:56:53.835Z,9.00
2017-11-20T03:57:53.846Z,9.60
2017-11-20T03:58:53.850Z,8.70
2017-11-20T03:59:53.861Z,9.40
2017-11-20T04:00:53.858Z,9.20
2017-11-20T04:01:53.870Z,9.30
2017-11-20T04:02:53.876Z,9.50
2017-11-20T04:03:53.894Z,9.50
2017-11-20T04:04:53.884Z,8.50
2017-11-20T04:05:53.894Z,8.80
2017-11-20T04:06:53.903Z,9.10
2017-11-20T04:07:53.898Z,9.10
2017-11-20T04:08:53.904Z,8.40
2017-11-20T04:09:53.912Z,9.10
2017-11-20T04:10:53.920Z,9.10
2017-11-20T04:11:53.925Z,8.80
2017-11-20T04:12:53.934Z,8.90
2017-11-20T04:13:53.938Z,8.00
2017-11-20T04:14:53.935Z,8.10
2017-11-20T04:15:53.953Z,8.00
2017-11-20T04:16:53.952Z,8.10
2017-11-20T04:17:53.956Z,9.10
2017-11-20T04:18:53.962Z,8.40
2017-11-20T04:19:53.969Z,8.20
2017-11-20T04:20:53.973Z,8.00
2017-11-20T04:21:53.988Z,8.10
2017-11-20T04:22:53.987Z,8.30
2017-11-20T04:23:53.993Z,9.10
2017-11-20T04:24:53.999Z,8.10
2017-11-20T04:25:54.006Z,8.00
2017-11-20T04:26:55.098Z,8.20
2017-11-20T04:27:54.021Z,8.90
2017-11-20T04:28:54.081Z,8.30
2017-11-20T04:29:54.031Z,7.90
2017-11-20T04:30:54.095Z,8.00
2017-11-20T04:31:54.044Z,8.40
2017-11-20T04:32:54.042Z,8.80
2017-11-20T04:33:54.045Z,8.70
2017-11-20T04:34:54.048Z,8.20
2017-11-20T04:35:54.128Z,8.10
2017-11-20T04:36:54.060Z,8.00
2017-11-20T04:37:56.085Z,8.70
2017-11-20T04:38:54.072Z,8.60
2017-11-20T04:39:55.176Z,7.80
2017-11-20T04:40:54.086Z,7.80
2017-11-20T04:41:54.094Z,8.50
2017-11-20T04:42:54.181Z,7.70
2017-11-20T04:43:54.119Z,8.50
2017-11-20T04:44:55.212Z,8.90
2017-11-20T04:45:54.119Z,8.50
2017-11-20T04:46:54.205Z,9.00
2017-11-20T04:47:54.124Z,8.60
2017-11-20T04:48:54.217Z,9.10
2017-11-20T04:49:54.138Z,9.30
2017-11-20T04:50:54.234Z,8.40
2017-11-20T04:51:54.149Z,8.80
2017-11-20T04:52:59.880Z,8.60
2017-11-20T04:53:54.155Z,8.60
2017-11-20T04:54:54.162Z,8.90
2017-11-20T04:55:55.200Z,8.20
2017-11-20T04:56:54.175Z,8.30
2017-11-20T04:57:56.241Z,9.20
2017-11-20T04:58:54.190Z,9.20
2017-11-20T04:59:55.219Z,9.00
2017-11-20T05:00:54.200Z,8.80
2017-11-20T05:01:54.307Z,9.10
2017-11-20T05:02:54.213Z,9.40
2017-11-20T05:03:55.243Z,9.80
2017-11-20T05:04:54.228Z,9.70
2017-11-20T05:05:55.256Z,9.40
2017-11-20T05:06:54.232Z,9.30
2017-11-20T05:07:58.852Z,9.70
2017-11-20T05:08:54.241Z,9.00
2017-11-20T05:10:09.827Z,9.50
2017-11-20T05:10:54.262Z,9.50
2017-11-20T05:11:55.293Z,9.60
2017-11-20T05:12:54.264Z,10.00
2017-11-20T05:13:54.385Z,9.40
2017-11-20T05:14:54.274Z,8.80
2017-11-20T05:15:54.279Z,9.60
2017-11-20T05:16:54.288Z,9.50
2017-11-20T05:17:54.301Z,10.40
2017-11-20T05:18:54.299Z,9.80
2017-11-20T05:19:55.349Z,9.50
2017-11-20T05:20:54.318Z,10.50
2017-11-20T05:21:56.385Z,10.20
2017-11-20T05:22:54.322Z,10.00
2017-11-20T05:23:54.351Z,9.60
2017-11-20T05:24:54.325Z,10.00
2017-11-20T05:25:59.382Z,10.00
2017-11-20T05:26:54.348Z,10.40
2017-11-20T05:27:54.379Z,10.30
2017-11-20T05:28:54.351Z,10.30
2017-11-20T05:29:55.415Z,10.30
2017-11-20T05:30:54.361Z,10.40
2017-11-20T05:31:54.406Z,9.70
2017-11-20T05:32:54.373Z,10.60
2017-11-20T05:33:56.469Z,10.10
2017-11-20T05:34:54.391Z,10.00
2017-11-20T05:35:54.432Z,10.10
2017-11-20T05:36:54.388Z,10.90
2017-11-20T05:37:54.443Z,10.20
2017-11-20T05:38:54.409Z,9.90
2017-11-20T05:39:54.470Z,10.60
2017-11-20T05:40:54.412Z,9.90
2017-11-20T05:41:54.477Z,10.50
2017-11-20T05:42:54.428Z,10.70
2017-11-20T05:43:54.432Z,10.50
2017-11-20T05:44:54.488Z,10.30
2017-11-20T05:45:54.450Z,10.60
2017-11-20T05:46:54.508Z,10.70
2017-11-20T05:47:54.463Z,11.20
2017-11-20T05:48:54.528Z,11.30
2017-11-20T05:49:54.466Z,10.70
2017-11-20T05:50:54.539Z,10.60
2017-11-20T05:51:54.490Z,10.00
2017-11-20T05:52:54.587Z,10.40
2017-11-20T05:53:54.492Z,11.10
2017-11-20T05:54:54.561Z,10.40
2017-11-20T05:55:54.507Z,10.70
2017-11-20T05:56:54.591Z,10.90
2017-11-20T05:57:54.509Z,10.50
2017-11-20T05:58:54.587Z,10.60
2017-11-20T05:59:54.532Z,10.60
2017-11-20T06:00:54.603Z,10.80
2017-11-20T06:01:54.535Z,10.60
2017-11-20T06:02:54.622Z,9.70
2017-11-20T06:03:54.552Z,10.30
2017-11-20T06:04:54.635Z,10.40
2017-11-20T06:05:54.571Z,10.50
2017-11-20T06:06:54.650Z,10.30
2017-11-20T06:07:54.566Z,10.20
2017-11-20T06:08:54.650Z,10.90
2017-11-20T06:09:54.583Z,9.90
2017-11-20T06:10:54.661Z,10.30
2017-11-20T06:11:54.590Z,10.30
2017-11-20T06:12:54.645Z,10.10
2017-11-20T06:13:54.599Z,10.20
2017-11-20T06:14:54.651Z,9.90
2017-11-20T06:15:54.610Z,10.50
2017-11-20T06:16:54.674Z,9.60
2017-11-20T06:17:54.624Z,9.60
2017-11-20T06:18:54.686Z,10.50
2017-11-20T06:19:54.626Z,10.40
2017-11-20T06:20:54.706Z,10.20
2017-11-20T06:21:54.649Z,10.00
2017-11-20T06:22:54.729Z,10.20
2017-11-20T06:23:54.654Z,9.80
2017-11-20T06:25:00.374Z,10.10
2017-11-20T06:25:54.668Z,10.50
2017-11-20T06:26:54.671Z,9.50
2017-11-20T06:27:54.688Z,9.60
2017-11-20T06:28:55.792Z,10.00
2017-11-20T06:29:54.684Z,10.10
2017-11-20T06:31:00.309Z,9.60
2017-11-20T06:31:54.706Z,10.00
2017-11-20T06:32:54.794Z,10.50
2017-11-20T06:33:54.716Z,9.50
2017-11-20T06:34:54.797Z,9.70
2017-11-20T06:35:54.726Z,9.90
2017-11-20T06:36:54.817Z,10.00
2017-11-20T06:37:54.738Z,9.40
2017-11-20T06:38:54.832Z,9.00
2017-11-20T06:39:54.800Z,9.50
2017-11-20T06:40:54.846Z,9.30
2017-11-20T06:41:54.762Z,9.20
2017-11-20T06:42:54.762Z,9.50
2017-11-20T06:43:54.768Z,10.10
2017-11-20T06:44:54.872Z,9.30
2017-11-20T06:45:54.771Z,9.50
2017-11-20T06:46:54.879Z,9.70
2017-11-20T06:47:54.788Z,9.50
2017-11-20T06:48:54.899Z,9.70
2017-11-20T06:49:54.799Z,9.40
2017-11-20T06:50:54.916Z,9.50
2017-11-20T06:51:54.809Z,9.20
2017-11-20T06:52:54.872Z,8.80
2017-11-20T06:53:54.823Z,9.10
2017-11-20T06:55:01.898Z,8.20
2017-11-20T06:55:54.825Z,8.70
2017-11-20T06:56:54.947Z,9.10
2017-11-20T06:57:54.844Z,9.10
2017-11-20T06:58:54.963Z,9.30
2017-11-20T06:59:54.874Z,8.80
2017-11-20T07:00:54.864Z,9.30
2017-11-20T07:01:54.862Z,9.10
2017-11-20T07:02:54.936Z,8.30
2017-11-20T07:03:54.877Z,9.50
2017-11-20T07:04:54.941Z,8.60
2017-11-20T07:05:54.884Z,9.00
2017-11-20T07:06:54.962Z,8.90
2017-11-20T07:07:54.899Z,8.40
2017-11-20T07:08:56.038Z,9.50
2017-11-20T07:09:54.912Z,9.20
2017-11-20T07:10:54.988Z,8.70
2017-11-20T07:11:54.929Z,9.00
2017-11-20T07:13:09.851Z,9.70
2017-11-20T07:13:54.934Z,8.60
2017-11-20T07:14:56.039Z,8.80
2017-11-20T07:15:54.935Z,9.10
2017-11-20T07:16:54.948Z,9.20
2017-11-20T07:17:54.954Z,9.20
2017-11-20T07:18:55.044Z,9.50
2017-11-20T07:19:54.967Z,9.20
2017-11-20T07:20:56.089Z,9.80
2017-11-20T07:21:54.972Z,9.80
2017-11-20T07:22:56.102Z,8.70
2017-11-20T07:23:54.993Z,9.00
2017-11-20T07:24:56.011Z,9.60
2017-11-20T07:25:54.996Z,9.00
2017-11-20T07:26:56.025Z,9.30
2017-11-20T07:27:55.008Z,9.20
2017-11-20T07:28:57.070Z,9.30
2017-11-20T07:29:55.023Z,9.00
2017-11-20T07:30:55.062Z,10.10
2017-11-20T07:31:55.027Z,8.80
2017-11-20T07:32:55.090Z,9.40
2017-11-20T07:33:55.044Z,9.00
2017-11-20T07:34:55.103Z,9.90
2017-11-20T07:35:55.049Z,9.40
2017-11-20T07:36:55.105Z,9.50
2017-11-20T07:37:55.062Z,9.60
2017-11-20T07:38:55.115Z,9.70
2017-11-20T07:39:55.072Z,9.20
2017-11-20T07:40:55.152Z,9.10
2017-11-20T07:41:55.089Z,9.60
2017-11-20T07:42:55.142Z,9.60
2017-11-20T07:43:55.090Z,9.70
2017-11-20T07:44:55.103Z,9.70
2017-11-20T07:45:55.174Z,10.50
2017-11-20T07:46:55.108Z,9.90
2017-11-20T07:47:55.176Z,10.10
2017-11-20T07:48:55.122Z,10.10
2017-11-20T07:49:55.126Z,10.50
2017-11-20T07:50:55.134Z,10.70
2017-11-20T07:51:55.155Z,10.30
2017-11-20T07:52:55.144Z,10.30
2017-11-20T07:53:55.215Z,9.90
2017-11-20T07:54:55.153Z,10.00
2017-11-20T07:55:55.230Z,10.10
2017-11-20T07:56:55.170Z,10.30
2017-11-20T07:57:55.243Z,9.90
2017-11-20T07:58:55.174Z,9.40
2017-11-20T07:59:55.179Z,9.50
2017-11-20T08:00:55.194Z,10.60
2017-11-20T08:01:55.192Z,9.40
2017-11-20T08:02:55.197Z,9.00
2017-11-20T08:03:55.198Z,9.40
2017-11-20T08:04:55.206Z,9.80
2017-11-20T08:05:55.309Z,8.80
2017-11-20T08:06:55.219Z,9.10
2017-11-20T08:07:55.228Z,8.90
2017-11-20T08:08:55.527Z,9.40
2017-11-20T08:09:55.235Z,8.20
2017-11-20T08:10:55.258Z,8.60
2017-11-20T08:11:55.448Z,8.80
2017-11-20T08:12:55.273Z,8.40
2017-11-20T08:13:55.259Z,7.80
2017-11-20T08:14:55.265Z,8.10
2017-11-20T08:15:55.274Z,8.40
2017-11-20T08:16:55.274Z,8.50
2017-11-20T08:17:55.284Z,8.30
2017-11-20T08:18:55.287Z,7.60
2017-11-20T08:19:55.290Z,8.40
2017-11-20T08:20:55.296Z,8.10
2017-11-20T08:21:56.326Z,7.50
2017-11-20T08:22:55.309Z,8.10
2017-11-20T08:23:55.417Z,8.40
2017-11-20T08:24:55.321Z,8.20
2017-11-20T08:25:55.321Z,8.90
2017-11-20T08:26:55.326Z,9.20
2017-11-20T08:27:55.340Z,8.70
2017-11-20T08:28:55.337Z,9.40
2017-11-20T08:29:55.340Z,9.50
2017-11-20T08:30:55.349Z,9.60
2017-11-20T08:31:55.351Z,9.40
2017-11-20T08:32:55.358Z,10.40
2017-11-20T08:33:55.362Z,10.40
2017-11-20T08:34:55.365Z,11.20
2017-11-20T08:35:55.374Z,11.00
2017-11-20T08:36:55.386Z,10.90
2017-11-20T08:37:55.385Z,10.70
2017-11-20T08:38:55.390Z,11.20
2017-11-20T08:39:55.397Z,11.10
2017-11-20T08:40:55.401Z,10.80
2017-11-20T08:41:55.405Z,11.70
2017-11-20T08:42:55.472Z,10.40
2017-11-20T08:43:55.419Z,11.00
2017-11-20T08:44:55.424Z,10.90
2017-11-20T08:45:55.457Z,10.90
2017-11-20T08:46:55.438Z,10.30
2017-11-20T08:48:00.393Z,9.90
2017-11-20T08:48:55.455Z,9.60
2017-11-20T08:49:55.448Z,10.10
2017-11-20T08:50:55.465Z,10.20
2017-11-20T08:51:55.473Z,9.40
2017-11-20T08:52:55.467Z,9.90
2017-11-20T08:53:55.471Z,10.00
2017-11-20T08:54:55.478Z,9.60
2017-11-20T08:55:55.542Z,9.60
2017-11-20T08:56:55.490Z,9.60
2017-11-20T08:57:55.552Z,9.50
2017-11-20T08:58:55.504Z,9.60
2017-11-20T08:59:55.560Z,9.20
2017-11-20T09:00:55.520Z,9.90
2017-11-20T09:01:55.516Z,10.30
2017-11-20T09:02:55.531Z,10.80
2017-11-20T09:03:55.529Z,11.30
2017-11-20T09:04:55.532Z,11.30
2017-11-20T09:05:55.541Z,11.60
2017-11-20T09:06:55.545Z,11.70
2017-11-20T09:07:55.548Z,11.70
2017-11-20T09:08:55.561Z,12.70
2017-11-20T09:10:21.133Z,13.10
2017-11-20T09:10:55.573Z,12.80
2017-11-20T09:11:55.570Z,12.90
2017-11-20T09:12:55.577Z,14.10
2017-11-20T09:13:55.586Z,13.50
2017-11-20T09:14:55.585Z,14.70
2017-11-20T09:15:55.637Z,14.10
2017-11-20T09:16:55.611Z,14.50
2017-11-20T09:17:55.601Z,13.90
2017-11-20T09:18:55.610Z,13.00
2017-11-20T09:19:55.609Z,12.50
2017-11-20T09:20:55.620Z,13.20
2017-11-20T09:21:55.639Z,12.70
2017-11-20T09:22:55.638Z,11.80
2017-11-20T09:23:55.640Z,11.40
2017-11-20T09:24:55.646Z,12.20
2017-11-20T09:25:55.671Z,12.10
2017-11-20T09:26:55.647Z,10.60
2017-11-20T09:27:55.656Z,11.00
2017-11-20T09:28:55.663Z,11.70
2017-11-20T09:29:55.764Z,10.60
2017-11-20T09:30:55.674Z,10.40
2017-11-20T09:31:56.786Z,11.20
2017-11-20T09:32:55.683Z,10.30
2017-11-20T09:33:55.763Z,10.60
2017-11-20T09:34:55.689Z,10.40
2017-11-20T09:35:55.694Z,10.80
2017-11-20T09:37:01.425Z,10.90
2017-11-20T09:37:55.711Z,11.00
2017-11-20T09:38:57.832Z,11.50
2017-11-20T09:39:55.734Z,11.40
2017-11-20T09:40:55.727Z,11.40
2017-11-20T09:41:55.802Z,11.10
2017-11-20T09:42:55.742Z,10.80
2017-11-20T09:43:55.734Z,11.10
2017-11-20T09:45:01.352Z,11.30
2017-11-20T09:45:55.765Z,10.60
2017-11-20T09:46:56.864Z,11.10
2017-11-20T09:47:55.768Z,11.20
2017-11-20T09:48:57.796Z,11.70
2017-11-20T09:49:55.767Z,11.30
2017-11-20T09:50:57.817Z,10.40
2017-11-20T09:51:55.788Z,11.00
2017-11-20T09:52:55.798Z,11.10
2017-11-20T09:53:55.884Z,11.20
2017-11-20T09:54:55.814Z,11.30
2017-11-20T09:55:55.891Z,11.20
2017-11-20T09:56:55.820Z,11.60
2017-11-20T09:57:55.823Z,12.00
2017-11-20T09:58:55.813Z,11.60
2017-11-20T09:59:57.875Z,12.20
2017-11-20T10:00:55.830Z,11.80
2017-11-20T10:01:55.930Z,11.60
2017-11-20T10:02:55.848Z,12.20
2017-11-20T10:03:55.950Z,11.40
2017-11-20T10:04:55.854Z,12.30
2017-11-20T10:05:56.886Z,11.40
2017-11-20T10:06:55.868Z,12.10
2017-11-20T10:08:01.917Z,12.30
2017-11-20T10:08:55.881Z,11.60
2017-11-20T10:09:56.013Z,12.30
2017-11-20T10:10:55.886Z,10.70
2017-11-20T10:11:55.900Z,10.20
2017-11-20T10:12:55.901Z,9.90
2017-11-20T10:13:55.901Z,9.70
2017-11-20T10:14:55.912Z,9.70
2017-11-20T10:15:55.920Z,9.40
2017-11-20T10:16:55.919Z,9.70
2017-11-20T10:17:56.041Z,8.60
2017-11-20T10:18:55.920Z,7.60
2017-11-20T10:19:55.937Z,7.50
2017-11-20T10:20:55.945Z,7.40
2017-11-20T10:21:55.948Z,8.20
2017-11-20T10:22:55.953Z,7.70
2017-11-20T10:23:55.960Z,8.20
2017-11-20T10:24:55.966Z,7.80
2017-11-20T10:25:55.976Z,7.60
2017-11-20T10:26:55.986Z,7.60
2017-11-20T10:27:55.986Z,8.10
2017-11-20T10:28:55.989Z,8.30
2017-11-20T10:29:56.006Z,8.20
2017-11-20T10:30:55.991Z,8.10
2017-11-20T10:31:55.995Z,8.40
2017-11-20T10:32:56.002Z,8.60
2017-11-20T10:33:56.010Z,8.40
2017-11-20T10:34:56.019Z,8.90
2017-11-20T10:35:56.022Z,8.40
2017-11-20T10:36:56.028Z,9.30
2017-11-20T10:37:56.034Z,8.90
2017-11-20T10:38:56.047Z,9.30
2017-11-20T10:39:56.047Z,9.70
2017-11-20T10:40:56.048Z,10.00
2017-11-20T10:41:56.057Z,10.00
2017-11-20T10:42:56.066Z,11.20
2017-11-20T10:43:56.066Z,10.10
2017-11-20T10:44:56.072Z,10.40
2017-11-20T10:45:56.087Z,9.90
2017-11-20T10:46:56.089Z,9.30
2017-11-20T10:47:56.090Z,9.50
2017-11-20T10:48:56.094Z,9.20
2017-11-20T10:49:56.095Z,8.40
2017-11-20T10:50:56.100Z,9.30
2017-11-20T10:51:56.111Z,9.00
2017-11-20T10:52:56.113Z,9.50
2017-11-20T10:53:56.130Z,8.50
2017-11-20T10:54:56.128Z,8.00
2017-11-20T10:55:56.132Z,8.20
2017-11-20T10:56:56.134Z,7.60
2017-11-20T10:57:56.145Z,8.10
2017-11-20T10:58:56.145Z,7.70
2017-11-20T10:59:56.153Z,8.00
2017-11-20T11:00:56.157Z,8.30
2017-11-20T11:01:56.157Z,8.20
2017-11-20T11:02:56.172Z,7.80
2017-11-20T11:03:56.178Z,8.20
2017-11-20T11:04:56.180Z,8.70
2017-11-20T11:05:56.190Z,8.30
2017-11-20T11:06:56.199Z,9.00
2017-11-20T11:07:56.227Z,9.40
2017-11-20T11:08:56.200Z,8.80
2017-11-20T11:09:56.205Z,8.60
2017-11-20T11:10:56.207Z,8.80
2017-11-20T11:11:56.840Z,8.70
2017-11-20T11:12:56.262Z,9.00
2017-11-20T11:13:56.226Z,8.70
2017-11-20T11:14:56.264Z,10.20
2017-11-20T11:15:56.230Z,8.70
2017-11-20T11:16:56.245Z,10.00
2017-11-20T11:17:56.249Z,11.30
2017-11-20T11:18:56.248Z,10.20
2017-11-20T11:19:56.252Z,10.00
2017-11-20T11:20:56.261Z,10.90
2017-11-20T11:21:56.317Z,9.90
2017-11-20T11:22:56.271Z,9.90
2017-11-20T11:23:56.279Z,11.20
2017-11-20T11:24:56.286Z,10.30
2017-11-20T11:25:56.292Z,9.40
2017-11-20T11:26:56.295Z,9.80
2017-11-20T11:27:56.302Z,9.90
2017-11-20T11:28:56.317Z,11.10
2017-11-20T11:29:56.315Z,10.30
2017-11-20T11:30:56.322Z,9.90
2017-11-20T11:31:56.327Z,9.60
2017-11-20T11:32:56.334Z,9.40
2017-11-20T11:33:56.326Z,9.40
2017-11-20T11:34:56.348Z,9.40
2017-11-20T11:35:56.344Z,9.40
2017-11-20T11:36:56.358Z,9.10
2017-11-20T11:37:56.373Z,8.60
2017-11-20T11:38:56.359Z,8.10
2017-11-20T11:39:56.362Z,8.80
2017-11-20T11:40:56.375Z,7.90
2017-11-20T11:41:56.372Z,8.20
2017-11-20T11:42:56.404Z,7.30
2017-11-20T11:43:56.385Z,7.40
2017-11-20T11:44:56.389Z,8.00
2017-11-20T11:45:56.396Z,7.20
2017-11-20T11:46:56.407Z,7.70
2017-11-20T11:47:56.412Z,7.80
2017-11-20T11:48:56.417Z,7.20
2017-11-20T11:49:56.437Z,6.80
2017-11-20T11:50:56.429Z,6.90
2017-11-20T11:51:56.429Z,6.50
2017-11-20T11:52:56.436Z,6.40
2017-11-20T11:53:56.445Z,6.10
2017-11-20T11:54:56.459Z,6.90
2017-11-20T11:55:56.449Z,6.80
2017-11-20T11:56:56.574Z,6.20
2017-11-20T11:57:56.465Z,6.20
2017-11-20T11:58:56.470Z,6.50
2017-11-20T11:59:56.474Z,6.30
2017-11-20T12:00:56.478Z,5.80
2017-11-20T12:01:56.485Z,6.90
2017-11-20T12:02:56.508Z,6.10
2017-11-20T12:03:56.495Z,6.00
2017-11-20T12:04:56.504Z,5.50
2017-11-20T12:05:56.540Z,5.60
2017-11-20T12:06:56.528Z,6.00
2017-11-20T12:07:56.516Z,5.70
2017-11-20T12:08:56.519Z,5.90
2017-11-20T12:09:56.523Z,6.40
2017-11-20T12:10:56.531Z,6.50
2017-11-20T12:11:56.539Z,5.70
2017-11-20T12:12:56.543Z,5.90
2017-11-20T12:13:56.582Z,5.60
2017-11-20T12:14:56.551Z,5.40
2017-11-20T12:15:56.601Z,5.80
2017-11-20T12:16:56.565Z,5.50
2017-11-20T12:17:56.607Z,5.50
2017-11-20T12:18:56.573Z,5.60
2017-11-20T12:19:56.878Z,5.30
2017-11-20T12:20:56.585Z,5.20
2017-11-20T12:21:56.590Z,5.90
2017-11-20T12:22:56.650Z,5.90
2017-11-20T12:23:56.599Z,5.80
2017-11-20T12:24:56.612Z,5.10
2017-11-20T12:25:56.612Z,5.60
2017-11-20T12:26:56.620Z,5.70
2017-11-20T12:27:56.627Z,5.70
2017-11-20T12:28:58.729Z,5.40
2017-11-20T12:29:56.642Z,5.70
2017-11-20T12:30:57.715Z,4.90
2017-11-20T12:31:56.652Z,4.90
2017-11-20T12:32:58.765Z,5.50
2017-11-20T12:33:56.655Z,5.40
2017-11-20T12:34:58.761Z,5.70
2017-11-20T12:35:56.668Z,5.00
2017-11-20T12:37:01.443Z,4.90
2017-11-20T12:37:56.678Z,4.30
2017-11-20T12:38:57.777Z,5.00
2017-11-20T12:39:56.686Z,5.20
2017-11-20T12:40:56.753Z,5.40
2017-11-20T12:41:56.699Z,4.90
2017-11-20T12:42:56.699Z,5.10
2017-11-20T12:43:56.706Z,5.50
2017-11-20T12:44:58.831Z,5.10
2017-11-20T12:45:56.720Z,5.80
2017-11-20T12:46:56.725Z,5.40
2017-11-20T12:48:01.418Z,5.40
2017-11-20T12:48:56.732Z,5.30
2017-11-20T12:49:58.769Z,5.00
2017-11-20T12:50:56.744Z,5.30
2017-11-20T12:51:56.836Z,5.20
2017-11-20T12:52:56.750Z,4.90
2017-11-20T12:53:56.753Z,5.30
2017-11-20T12:54:56.763Z,5.80
2017-11-20T12:55:56.855Z,5.90
2017-11-20T12:56:56.777Z,5.40
2017-11-20T12:57:56.876Z,5.30
2017-11-20T12:58:56.781Z,5.90
2017-11-20T12:59:56.787Z,5.50
2017-11-20T13:00:56.858Z,6.20
2017-11-20T13:01:56.805Z,6.10
2017-11-20T13:02:56.874Z,6.10
2017-11-20T13:03:56.815Z,5.80
2017-11-20T13:04:56.830Z,6.10
2017-11-20T13:05:56.824Z,5.90
2017-11-20T13:06:56.895Z,6.10
2017-11-20T13:07:56.835Z,5.60
2017-11-20T13:08:56.916Z,5.70
2017-11-20T13:09:56.849Z,6.30
2017-11-20T13:10:56.856Z,5.90
2017-11-20T13:11:56.862Z,6.10
2017-11-20T13:12:56.936Z,6.10